createdAt,value
2017-10-09T00:00:50.454Z,91.00
2017-10-09T00:03:20.231Z,90.30
2017-10-09T00:05:49.174Z,90.40
2017-10-09T00:08:17.280Z,90.40
2017-10-09T00:10:45.425Z,90.40
2017-10-09T00:13:13.543Z,90.00
2017-10-09T00:15:41.699Z,89.30
2017-10-09T00:18:09.835Z,90.20
2017-10-09T00:20:37.974Z,89.70
2017-10-09T00:23:06.872Z,89.70
2017-10-09T00:25:35.080Z,89.60
2017-10-09T00:28:03.221Z,88.80
2017-10-09T00:30:31.417Z,87.90
2017-10-09T00:32:59.544Z,87.40
2017-10-09T00:35:28.440Z,87.00
2017-10-09T00:37:57.340Z,86.70
2017-10-09T00:40:26.224Z,86.60
2017-10-09T00:42:55.126Z,86.50
2017-10-09T00:45:23.247Z,86.50
2017-10-09T00:47:51.399Z,86.50
2017-10-09T00:50:19.537Z,86.50
2017-10-09T00:52:48.439Z,86.80
2017-10-09T00:55:16.553Z,86.80
2017-10-09T00:57:44.700Z,86.80
2017-10-09T01:00:13.177Z,87.10
2017-10-09T01:02:41.283Z,87.20
2017-10-09T01:05:09.446Z,88.00
2017-10-09T01:07:37.573Z,87.30
2017-10-09T01:10:06.475Z,86.50
2017-10-09T01:12:34.607Z,86.50
2017-10-09T01:15:02.761Z,86.70
2017-10-09T01:17:30.887Z,87.00
2017-10-09T01:19:59.045Z,86.70
2017-10-09T01:22:27.167Z,86.90
2017-10-09T01:24:55.294Z,87.10
2017-10-09T01:27:23.432Z,87.00
2017-10-09T01:29:51.560Z,87.50
2017-10-09T01:32:19.699Z,86.90
2017-10-09T01:34:48.592Z,87.70
2017-10-09T01:37:17.504Z,88.70
2017-10-09T01:39:45.664Z,88.70
2017-10-09T01:42:13.830Z,88.30
2017-10-09T01:44:42.717Z,88.00
2017-10-09T01:47:11.591Z,87.50
2017-10-09T01:49:40.981Z,87.30
2017-10-09T01:52:09.123Z,87.30
2017-10-09T01:54:37.244Z,87.10
2017-10-09T01:57:06.184Z,87.20
2017-10-09T01:59:34.317Z,87.20
2017-10-09T02:02:03.216Z,88.60
2017-10-09T02:04:31.363Z,88.00
2017-10-09T02:07:00.255Z,88.10
2017-10-09T02:09:29.177Z,87.50
2017-10-09T02:11:57.311Z,87.50
2017-10-09T02:14:26.968Z,87.50
2017-10-09T02:16:55.091Z,87.50
2017-10-09T02:19:23.228Z,87.80
2017-10-09T02:21:51.348Z,87.40
2017-10-09T02:24:20.242Z,87.20
2017-10-09T02:26:49.151Z,87.50
2017-10-09T02:29:17.308Z,87.50
2017-10-09T02:31:46.200Z,89.40
2017-10-09T02:34:14.332Z,89.50
2017-10-09T02:36:43.331Z,88.60
2017-10-09T02:39:11.466Z,88.30
2017-10-09T02:41:40.166Z,88.20
2017-10-09T02:44:08.268Z,88.00
2017-10-09T02:46:36.415Z,87.30
2017-10-09T02:49:04.549Z,86.90
2017-10-09T02:51:32.669Z,86.90
2017-10-09T02:54:00.814Z,86.60
2017-10-09T02:56:28.946Z,86.10
2017-10-09T02:58:58.763Z,86.00
2017-10-09T03:01:27.681Z,86.00
2017-10-09T03:03:56.468Z,86.00
2017-10-09T03:06:24.584Z,86.00
2017-10-09T03:08:52.726Z,86.40
2017-10-09T03:11:21.615Z,87.70
2017-10-09T03:13:49.729Z,87.60
2017-10-09T03:16:18.633Z,87.50
2017-10-09T03:18:47.515Z,88.30
2017-10-09T03:21:16.427Z,87.50
2017-10-09T03:24:01.360Z,87.50
2017-10-09T03:26:48.176Z,87.60
2017-10-09T03:29:18.301Z,87.30
2017-10-09T03:31:46.421Z,87.20
2017-10-09T03:34:14.547Z,87.10
2017-10-09T03:36:43.448Z,86.40
2017-10-09T03:39:11.576Z,86.40
2017-10-09T03:41:39.732Z,86.30
2017-10-09T03:44:07.856Z,86.20
2017-10-09T03:46:36.744Z,86.30
2017-10-09T03:49:05.653Z,86.20
2017-10-09T03:51:33.774Z,86.10
2017-10-09T03:54:01.924Z,86.20
2017-10-09T03:56:30.048Z,86.50
2017-10-09T03:58:59.844Z,86.10
2017-10-09T04:01:27.972Z,86.00
2017-10-09T04:03:56.120Z,86.70
2017-10-09T04:06:24.263Z,85.70
2017-10-09T04:08:53.149Z,88.70
2017-10-09T04:11:21.299Z,88.10
2017-10-09T04:13:49.419Z,88.00
2017-10-09T04:16:17.556Z,87.20
2017-10-09T04:18:45.688Z,87.00
2017-10-09T04:21:13.839Z,87.10
2017-10-09T04:23:42.729Z,87.20
2017-10-09T04:26:11.637Z,86.90
2017-10-09T04:28:39.767Z,86.80
2017-10-09T04:31:08.679Z,86.90
2017-10-09T04:33:37.568Z,87.70
2017-10-09T04:36:05.715Z,87.60
2017-10-09T04:38:33.854Z,87.20
2017-10-09T04:41:01.997Z,86.80
2017-10-09T04:43:30.145Z,87.20
2017-10-09T04:45:59.758Z,87.50
2017-10-09T04:48:28.644Z,87.10
2017-10-09T04:50:57.561Z,87.00
2017-10-09T04:53:25.704Z,87.00
2017-10-09T04:55:53.836Z,86.80
2017-10-09T04:58:22.004Z,86.80
2017-10-09T05:00:50.954Z,87.50
2017-10-09T05:03:19.081Z,87.30
2017-10-09T05:05:47.214Z,87.00
2017-10-09T05:08:16.153Z,86.90
2017-10-09T05:10:44.298Z,86.90
2017-10-09T05:13:12.474Z,86.50
2017-10-09T05:15:41.373Z,87.00
2017-10-09T05:18:10.305Z,87.10
2017-10-09T05:20:38.463Z,87.00
2017-10-09T05:23:06.621Z,87.40
2017-10-09T05:25:35.543Z,86.70
2017-10-09T05:28:03.680Z,86.60
2017-10-09T05:30:32.632Z,86.60
2017-10-09T05:33:00.760Z,86.50
2017-10-09T05:35:29.681Z,86.70
2017-10-09T05:37:57.816Z,86.70
2017-10-09T05:40:26.732Z,86.10
2017-10-09T05:42:54.852Z,86.00
2017-10-09T05:45:23.010Z,85.80
2017-10-09T05:47:51.128Z,85.40
2017-10-09T05:50:20.024Z,85.60
2017-10-09T05:52:48.172Z,85.50
2017-10-09T05:55:16.295Z,85.20
2017-10-09T05:57:45.231Z,85.00
2017-10-09T06:00:13.373Z,85.50
2017-10-09T06:02:41.510Z,85.10
2017-10-09T06:05:10.419Z,85.20
2017-10-09T06:07:38.624Z,85.20
2017-10-09T06:10:06.761Z,85.30
2017-10-09T06:12:34.888Z,85.90
2017-10-09T06:15:03.068Z,85.70
2017-10-09T06:17:31.206Z,85.70
2017-10-09T06:19:59.343Z,85.50
2017-10-09T06:22:29.048Z,85.70
2017-10-09T06:24:57.961Z,85.50
2017-10-09T06:27:26.205Z,85.50
2017-10-09T06:29:56.185Z,85.60
2017-10-09T06:32:24.332Z,85.60
2017-10-09T06:34:52.473Z,86.30
2017-10-09T06:37:20.606Z,87.00
2017-10-09T06:39:48.740Z,86.50
2017-10-09T06:42:16.888Z,86.10
2017-10-09T06:44:45.015Z,85.80
2017-10-09T06:47:13.171Z,86.30
2017-10-09T06:49:41.300Z,86.70
2017-10-09T06:52:10.200Z,88.10
2017-10-09T06:54:42.268Z,88.20
2017-10-09T06:57:10.429Z,88.10
2017-10-09T06:59:39.447Z,87.10
2017-10-09T07:02:08.366Z,86.70
2017-10-09T07:04:36.520Z,86.60
2017-10-09T07:07:05.431Z,86.20
2017-10-09T07:09:34.317Z,86.20
2017-10-09T07:12:02.509Z,86.00
2017-10-09T07:14:30.648Z,85.40
2017-10-09T07:16:59.567Z,85.90
2017-10-09T07:19:27.707Z,85.90
2017-10-09T07:21:56.620Z,85.30
2017-10-09T07:24:24.751Z,85.20
2017-10-09T07:26:52.905Z,85.20
2017-10-09T07:29:21.046Z,85.70
2017-10-09T07:31:49.188Z,85.40
2017-10-09T07:34:18.131Z,85.20
2017-10-09T07:36:47.285Z,85.20
2017-10-09T07:39:16.745Z,85.10
2017-10-09T07:41:45.700Z,85.00
2017-10-09T07:44:13.848Z,84.90
2017-10-09T07:46:42.779Z,85.20
2017-10-09T07:49:10.903Z,85.20
2017-10-09T07:51:39.807Z,84.20
2017-10-09T07:54:08.640Z,84.10
2017-10-09T07:56:36.785Z,84.60
2017-10-09T07:59:04.912Z,84.30
2017-10-09T08:01:33.092Z,83.50
2017-10-09T08:04:01.977Z,83.70
2017-10-09T08:06:30.147Z,83.60
2017-10-09T08:08:58.296Z,83.70
2017-10-09T08:11:26.491Z,83.70
2017-10-09T08:13:54.613Z,83.30
2017-10-09T08:16:22.776Z,84.20
2017-10-09T08:18:51.573Z,84.70
2017-10-09T08:21:20.493Z,82.30
2017-10-09T08:23:48.632Z,82.30
2017-10-09T08:26:17.348Z,82.80
2017-10-09T08:28:45.507Z,83.60
2017-10-09T08:31:13.670Z,84.50
2017-10-09T08:33:41.836Z,82.50
2017-10-09T08:36:09.960Z,82.70
2017-10-09T08:38:38.123Z,83.10
2017-10-09T08:41:06.247Z,82.20
2017-10-09T08:43:34.400Z,81.40
2017-10-09T08:46:03.291Z,81.90
2017-10-09T08:48:32.198Z,81.90
2017-10-09T08:51:00.346Z,81.70
2017-10-09T08:53:29.270Z,81.00
2017-10-09T08:55:57.409Z,81.00
2017-10-09T08:58:25.544Z,79.90
2017-10-09T09:00:53.693Z,80.00
2017-10-09T09:03:21.848Z,80.60
2017-10-09T09:05:49.988Z,78.40
2017-10-09T09:08:18.135Z,78.40
2017-10-09T09:10:46.282Z,79.00
2017-10-09T09:13:14.411Z,78.30
2017-10-09T09:15:43.333Z,77.70
2017-10-09T09:18:11.459Z,77.70
2017-10-09T09:20:39.621Z,76.60
2017-10-09T09:23:07.761Z,76.80
2017-10-09T09:25:35.912Z,78.70
2017-10-09T09:28:04.045Z,78.20
2017-10-09T09:30:32.195Z,77.20
2017-10-09T09:33:00.340Z,75.30
2017-10-09T09:35:28.492Z,72.80
2017-10-09T09:37:56.628Z,72.90
2017-10-09T09:40:24.814Z,74.60
2017-10-09T09:42:52.966Z,72.30
2017-10-09T09:45:21.136Z,74.60
2017-10-09T09:47:49.283Z,74.50
2017-10-09T09:50:17.412Z,73.70
2017-10-09T09:52:45.553Z,72.30
2017-10-09T09:55:13.690Z,72.70
2017-10-09T09:57:41.860Z,71.70
2017-10-09T10:00:10.777Z,70.00
2017-10-09T10:02:38.925Z,70.00
2017-10-09T10:05:07.070Z,69.70
2017-10-09T10:07:35.212Z,68.40
2017-10-09T10:10:04.113Z,66.00
2017-10-09T10:12:32.252Z,66.00
2017-10-09T10:15:00.400Z,65.50
2017-10-09T10:17:29.297Z,69.80
2017-10-09T10:19:57.453Z,69.80
2017-10-09T10:22:26.331Z,69.00
2017-10-09T10:24:55.244Z,69.50
2017-10-09T10:27:23.399Z,69.50
2017-10-09T10:29:52.298Z,71.60
2017-10-09T10:32:21.205Z,72.70
2017-10-09T10:34:49.364Z,72.60
2017-10-09T10:37:17.517Z,72.10
2017-10-09T10:39:46.469Z,70.90
2017-10-09T10:42:14.600Z,70.90
2017-10-09T10:44:42.747Z,71.50
2017-10-09T10:47:10.903Z,69.90
2017-10-09T10:49:39.019Z,70.50
2017-10-09T10:52:07.153Z,71.50
2017-10-09T10:54:35.276Z,72.10
2017-10-09T10:57:04.632Z,69.30
2017-10-09T10:59:32.739Z,69.30
2017-10-09T11:02:00.889Z,69.80
2017-10-09T11:04:29.780Z,70.50
2017-10-09T11:06:59.917Z,70.30
2017-10-09T11:09:28.808Z,71.30
2017-10-09T11:11:56.951Z,71.30
2017-10-09T11:14:25.084Z,69.30
2017-10-09T11:16:53.250Z,70.40
2017-10-09T11:19:21.486Z,69.40
2017-10-09T11:21:49.651Z,68.60
2017-10-09T11:24:18.992Z,69.10
2017-10-09T11:26:47.782Z,69.50
2017-10-09T11:29:15.933Z,69.00
2017-10-09T11:31:44.814Z,68.10
2017-10-09T11:34:13.719Z,68.20
2017-10-09T11:36:41.883Z,68.20
2017-10-09T11:39:10.778Z,67.50
2017-10-09T11:41:38.939Z,67.50
2017-10-09T11:44:07.846Z,67.50
2017-10-09T11:46:36.006Z,67.40
2017-10-09T11:49:04.905Z,66.00
2017-10-09T11:51:33.793Z,65.30
2017-10-09T11:54:02.708Z,64.60
2017-10-09T11:56:30.828Z,64.50
2017-10-09T11:58:59.004Z,65.10
2017-10-09T12:01:27.884Z,66.10
2017-10-09T12:03:56.021Z,66.10
2017-10-09T12:06:24.144Z,66.60
2017-10-09T12:08:53.080Z,64.50
2017-10-09T12:11:21.292Z,64.50
2017-10-09T12:13:49.432Z,64.70
2017-10-09T12:16:17.556Z,65.50
2017-10-09T12:18:46.457Z,65.80
2017-10-09T12:21:14.609Z,65.70
2017-10-09T12:23:42.764Z,66.30
2017-10-09T12:26:11.814Z,63.60
2017-10-09T12:28:40.732Z,63.50
2017-10-09T12:31:08.888Z,64.20
2017-10-09T12:33:37.070Z,63.70
2017-10-09T12:36:05.227Z,63.70
2017-10-09T12:38:33.405Z,65.10
2017-10-09T12:41:01.566Z,63.90
2017-10-09T12:43:29.708Z,65.00
2017-10-09T12:45:57.845Z,63.20
2017-10-09T12:48:25.989Z,64.50
2017-10-09T12:50:54.102Z,63.80
2017-10-09T12:53:22.252Z,64.10
2017-10-09T12:55:50.375Z,64.10
2017-10-09T12:58:19.277Z,65.20
2017-10-09T13:00:47.421Z,65.10
2017-10-09T13:03:15.531Z,64.40
2017-10-09T13:05:43.912Z,65.60
2017-10-09T13:08:12.048Z,64.20
2017-10-09T13:10:40.170Z,65.10
2017-10-09T13:13:08.332Z,64.70
2017-10-09T13:15:36.448Z,65.70
2017-10-09T13:18:04.580Z,66.30
2017-10-09T13:20:32.781Z,65.60
2017-10-09T13:23:00.939Z,64.20
2017-10-09T13:25:29.109Z,64.90
2017-10-09T13:27:58.037Z,63.80
2017-10-09T13:30:26.180Z,63.70
2017-10-09T13:32:54.313Z,63.70
2017-10-09T13:35:23.228Z,65.00
2017-10-09T13:37:51.426Z,64.80
2017-10-09T13:40:19.597Z,64.10
2017-10-09T13:42:47.730Z,61.90
2017-10-09T13:45:16.466Z,59.40
2017-10-09T13:47:44.589Z,58.80
2017-10-09T13:50:12.740Z,59.30
2017-10-09T13:52:41.645Z,58.70
2017-10-09T13:55:10.538Z,56.60
2017-10-09T13:57:39.440Z,57.80
2017-10-09T14:00:07.581Z,58.30
2017-10-09T14:02:36.556Z,57.70
2017-10-09T14:05:04.714Z,57.70
2017-10-09T14:07:32.869Z,58.20
2017-10-09T14:10:01.010Z,58.30
2017-10-09T14:12:29.912Z,60.30
2017-10-09T14:14:58.031Z,60.20
2017-10-09T14:17:26.258Z,61.90
2017-10-09T14:19:54.405Z,61.70
2017-10-09T14:22:22.547Z,62.40
2017-10-09T14:24:50.685Z,61.90
2017-10-09T14:27:18.832Z,62.00
2017-10-09T14:29:48.056Z,60.70
2017-10-09T14:42:09.673Z,59.50
2017-10-09T14:44:38.757Z,60.20
2017-10-09T14:47:07.665Z,61.60
2017-10-09T14:49:35.801Z,60.90
2017-10-09T14:52:03.933Z,60.90
2017-10-09T14:54:32.874Z,60.80
2017-10-09T14:57:01.017Z,60.80
2017-10-09T14:59:29.146Z,61.40
2017-10-09T15:01:57.280Z,62.50
2017-10-09T15:04:25.432Z,63.40
2017-10-09T15:06:54.346Z,56.60
2017-10-09T15:09:22.484Z,56.60
2017-10-09T15:11:50.636Z,52.70
2017-10-09T15:14:18.748Z,50.30
2017-10-09T15:16:47.446Z,47.60
2017-10-09T15:19:15.590Z,45.80
2017-10-09T15:21:44.469Z,44.10
2017-10-09T15:24:13.365Z,44.10
2017-10-09T15:26:43.204Z,46.00
2017-10-09T15:29:11.347Z,45.80
2017-10-09T15:31:41.455Z,51.60
2017-10-09T15:34:09.587Z,51.60
2017-10-09T15:36:37.736Z,53.20
2017-10-09T15:39:07.670Z,55.70
2017-10-09T15:41:35.810Z,57.80
2017-10-09T15:44:04.747Z,59.40
2017-10-09T15:46:33.633Z,61.00
2017-10-09T15:49:01.774Z,61.00
2017-10-09T15:51:29.931Z,61.30
2017-10-09T15:53:59.622Z,62.50
2017-10-09T15:56:27.767Z,62.50
2017-10-09T15:58:55.901Z,62.40
2017-10-09T16:01:24.024Z,63.20
2017-10-09T16:03:52.192Z,63.40
2017-10-09T16:06:20.346Z,64.10
2017-10-09T16:08:49.296Z,64.50
2017-10-09T16:11:18.457Z,63.90
2017-10-09T16:13:46.616Z,63.90
2017-10-09T16:16:15.519Z,64.30
2017-10-09T16:18:43.700Z,64.40
2017-10-09T16:21:11.876Z,64.90
2017-10-09T16:23:40.006Z,65.80
2017-10-09T16:26:08.157Z,65.90
2017-10-09T16:28:36.315Z,66.20
2017-10-09T16:31:05.244Z,66.80
2017-10-09T16:33:33.401Z,66.70
2017-10-09T16:36:01.591Z,67.30
2017-10-09T16:38:29.732Z,67.40
2017-10-09T16:40:59.216Z,67.40
2017-10-09T16:43:27.325Z,67.40
2017-10-09T16:45:55.475Z,67.90
2017-10-09T16:48:24.369Z,68.60
2017-10-09T16:50:52.524Z,68.50
2017-10-09T16:53:20.653Z,68.50
2017-10-09T16:55:48.804Z,68.90
2017-10-09T16:58:16.969Z,69.00
2017-10-09T17:00:45.104Z,68.90
2017-10-09T17:03:13.245Z,68.70
2017-10-09T17:05:41.384Z,69.00
2017-10-09T17:08:10.162Z,69.20
2017-10-09T17:10:38.316Z,69.30
2017-10-09T17:13:07.551Z,69.40
2017-10-09T17:15:35.876Z,69.50
2017-10-09T17:18:04.032Z,69.10
2017-10-09T17:20:32.182Z,69.30
2017-10-09T17:23:00.332Z,69.00
2017-10-09T17:25:28.519Z,69.70
2017-10-09T17:27:56.673Z,70.30
2017-10-09T17:30:25.594Z,70.00
2017-10-09T17:32:53.752Z,69.80
2017-10-09T17:35:21.918Z,69.80
2017-10-09T17:37:50.092Z,70.20
2017-10-09T17:40:18.276Z,70.40
2017-10-09T17:42:46.421Z,70.60
2017-10-09T17:45:15.368Z,71.20
2017-10-09T17:47:43.500Z,71.20
2017-10-09T17:50:11.664Z,71.60
2017-10-09T17:52:40.599Z,72.40
2017-10-09T17:55:08.805Z,72.40
2017-10-09T17:57:36.977Z,72.80
2017-10-09T18:00:06.085Z,72.90
2017-10-09T18:02:34.265Z,73.00
2017-10-09T18:05:03.176Z,73.40
2017-10-09T18:07:32.675Z,73.90
2017-10-09T18:10:01.610Z,74.80
2017-10-09T18:12:29.746Z,74.80
2017-10-09T18:14:58.671Z,74.50
2017-10-09T18:17:26.857Z,74.50
2017-10-09T18:19:55.010Z,74.50
2017-10-09T18:22:23.176Z,74.40
2017-10-09T18:24:51.326Z,74.30
2017-10-09T18:27:19.485Z,74.50
2017-10-09T18:29:47.632Z,74.80
2017-10-09T18:32:15.895Z,75.10
2017-10-09T18:34:44.092Z,75.10
2017-10-09T18:37:12.244Z,75.00
2017-10-09T18:39:40.393Z,75.30
2017-10-09T18:42:08.577Z,75.60
2017-10-09T18:44:37.518Z,75.50
2017-10-09T18:47:05.690Z,75.50
2017-10-09T18:49:33.880Z,75.30
2017-10-09T18:52:02.813Z,76.30
2017-10-09T18:54:30.997Z,76.30
2017-10-09T18:56:59.134Z,76.40
2017-10-09T18:59:27.306Z,76.30
2017-10-09T19:01:55.461Z,76.50
2017-10-09T19:04:24.384Z,76.60
2017-10-09T19:06:52.553Z,76.60
2017-10-09T19:09:20.691Z,76.50
2017-10-09T19:11:48.856Z,76.40
2017-10-09T19:14:17.140Z,77.10
2017-10-09T19:16:45.271Z,77.00
2017-10-09T19:19:13.438Z,76.80
2017-10-09T19:21:41.578Z,76.90
2017-10-09T19:24:09.758Z,77.00
2017-10-09T19:26:38.650Z,76.70
2017-10-09T19:29:06.846Z,77.30
2017-10-09T19:31:34.999Z,78.70
2017-10-09T19:34:03.174Z,78.80
2017-10-09T19:36:31.326Z,78.30
2017-10-09T19:39:00.882Z,77.80
2017-10-09T19:41:29.051Z,77.80
2017-10-09T19:43:57.217Z,78.00
2017-10-09T19:46:25.380Z,77.90
2017-10-09T19:48:53.524Z,77.70
2017-10-09T19:51:22.634Z,78.10
2017-10-09T19:53:50.838Z,78.00
2017-10-09T19:56:19.014Z,77.90
2017-10-09T19:58:47.155Z,77.90
2017-10-09T20:01:15.318Z,77.70
2017-10-09T20:03:44.226Z,77.70
2017-10-09T20:06:13.174Z,77.90
2017-10-09T20:08:42.099Z,78.00
2017-10-09T20:11:10.255Z,78.00
2017-10-09T20:13:38.405Z,77.90
2017-10-09T20:16:06.570Z,78.10
2017-10-09T20:18:36.534Z,78.20
2017-10-09T20:21:04.667Z,78.20
2017-10-09T20:23:32.814Z,78.20
2017-10-09T20:26:02.457Z,78.80
2017-10-09T20:28:31.397Z,79.20
2017-10-09T20:30:59.533Z,79.20
2017-10-09T20:33:27.687Z,79.30
2017-10-09T20:35:56.608Z,78.90
2017-10-09T20:38:24.754Z,78.70
2017-10-09T20:40:53.682Z,78.50
2017-10-09T20:43:21.849Z,78.50
2017-10-09T20:45:50.024Z,78.30
2017-10-09T20:48:18.181Z,78.50
2017-10-09T20:50:47.098Z,78.90
2017-10-09T20:53:15.237Z,78.90
2017-10-09T20:55:43.382Z,79.00
2017-10-09T20:58:13.058Z,78.80
2017-10-09T21:00:41.226Z,78.80
2017-10-09T21:03:09.397Z,78.70
2017-10-09T21:05:37.561Z,78.70
2017-10-09T21:08:05.729Z,79.10
2017-10-09T21:10:33.914Z,79.00
2017-10-09T21:13:02.049Z,79.00
2017-10-09T21:15:30.202Z,78.70
2017-10-09T21:17:58.736Z,78.90
2017-10-09T21:20:27.647Z,79.20
2017-10-09T21:22:57.516Z,79.00
2017-10-09T21:25:26.418Z,79.30
2017-10-09T21:27:54.577Z,79.20
2017-10-09T21:30:23.514Z,79.20
2017-10-09T21:32:51.653Z,79.10
2017-10-09T21:35:20.566Z,79.20
2017-10-09T21:37:48.724Z,79.20
2017-10-09T21:40:16.892Z,79.70
2017-10-09T21:42:45.794Z,81.20
2017-10-09T21:45:13.958Z,81.20
2017-10-09T21:47:42.109Z,81.10
2017-10-09T21:50:11.023Z,81.10
2017-10-09T21:52:39.188Z,81.00
2017-10-09T21:55:07.360Z,80.60
2017-10-09T21:57:37.497Z,80.90
2017-10-09T22:00:05.999Z,80.80
2017-10-09T22:02:34.136Z,80.90
2017-10-09T22:05:02.291Z,80.70
2017-10-09T22:07:31.207Z,80.40
2017-10-09T22:09:59.331Z,80.40
2017-10-09T22:12:27.513Z,80.70
2017-10-09T22:14:55.645Z,80.80
2017-10-09T22:17:23.789Z,81.00
2017-10-09T22:19:51.928Z,80.90
2017-10-09T22:22:20.497Z,80.50
2017-10-09T22:24:48.634Z,80.50
2017-10-09T22:27:17.963Z,80.60
2017-10-09T22:29:46.898Z,80.30
2017-10-09T22:32:15.072Z,80.30
2017-10-09T22:34:43.971Z,79.70
2017-10-09T22:37:12.213Z,79.70
2017-10-09T22:39:41.132Z,79.70
2017-10-09T22:42:10.032Z,79.70
2017-10-09T22:44:38.173Z,79.70
2017-10-09T22:47:06.323Z,79.60
2017-10-09T22:49:35.541Z,79.10
2017-10-09T22:52:05.563Z,78.90
2017-10-09T22:54:41.605Z,78.80
2017-10-09T22:57:11.262Z,79.00
2017-10-09T22:59:40.381Z,78.90
2017-10-09T23:02:08.516Z,78.90
2017-10-09T23:04:36.648Z,79.00
2017-10-09T23:07:04.797Z,78.80
2017-10-09T23:09:32.928Z,78.50
2017-10-09T23:12:01.817Z,78.80
2017-10-09T23:14:30.720Z,78.60
2017-10-09T23:16:58.872Z,78.50
2017-10-09T23:19:28.109Z,79.40
2017-10-09T23:21:56.255Z,79.30
2017-10-09T23:24:25.164Z,79.30
2017-10-09T23:26:53.332Z,79.30
2017-10-09T23:29:22.219Z,78.80
2017-10-09T23:31:50.340Z,78.70
2017-10-09T23:34:18.493Z,78.80
2017-10-09T23:36:46.603Z,78.50
2017-10-09T23:39:14.797Z,77.80
2017-10-09T23:41:42.933Z,77.60
2017-10-09T23:44:11.067Z,77.50
2017-10-09T23:46:39.211Z,77.50
2017-10-09T23:51:43.113Z,77.20
2017-10-09T23:54:12.026Z,77.70
2017-10-09T23:56:40.174Z,77.70
2017-10-09T23:59:09.066Z,77.60
